createdAt,value
2022-08-26T00:01:57.051Z,8.50
2022-08-26T00:04:25.606Z,9.27
2022-08-26T00:06:53.610Z,9.00
2022-08-26T00:09:21.579Z,9.35
2022-08-26T00:11:48.895Z,9.27
2022-08-26T00:14:16.859Z,9.57
2022-08-26T00:16:47.606Z,8.45
2022-08-26T00:19:16.642Z,8.55
2022-08-26T00:21:44.119Z,8.93
2022-08-26T00:24:11.996Z,9.23
2022-08-26T00:26:41.479Z,9.23
2022-08-26T00:29:09.457Z,9.18
2022-08-26T00:31:37.141Z,8.52
2022-08-26T00:34:04.855Z,10.82
2022-08-26T00:36:32.580Z,10.52
2022-08-26T00:39:00.074Z,9.32
2022-08-26T00:41:29.348Z,9.57
2022-08-26T00:43:57.408Z,10.50
2022-08-26T00:46:28.830Z,10.40
2022-08-26T00:49:00.559Z,10.13
2022-08-26T00:51:29.644Z,10.65
2022-08-26T00:54:06.366Z,11.15
2022-08-26T00:56:33.860Z,10.00
2022-08-26T00:59:02.640Z,11.07
2022-08-26T01:01:32.266Z,10.48
2022-08-26T01:04:00.912Z,11.10
2022-08-26T01:06:28.670Z,10.23
2022-08-26T01:08:56.124Z,10.45
2022-08-26T01:11:24.491Z,10.68
2022-08-26T01:13:54.699Z,11.00
2022-08-26T01:16:24.869Z,10.73
2022-08-26T01:18:54.699Z,11.27
2022-08-26T01:21:31.231Z,10.48
2022-08-26T01:23:58.897Z,10.75
2022-08-26T01:26:38.663Z,10.38
2022-08-26T01:29:06.649Z,10.82
2022-08-26T01:31:37.775Z,11.73
2022-08-26T01:34:06.412Z,11.57
2022-08-26T01:36:37.398Z,11.68
2022-08-26T01:39:05.940Z,10.85
2022-08-26T01:41:35.101Z,10.45
2022-08-26T01:44:03.652Z,10.73
2022-08-26T01:46:31.344Z,10.30
2022-08-26T01:49:00.592Z,10.55
2022-08-26T01:51:28.539Z,11.70
2022-08-26T01:53:55.924Z,11.52
2022-08-26T01:56:23.996Z,11.50
2022-08-26T01:58:59.054Z,11.77
2022-08-26T02:01:28.934Z,12.02
2022-08-26T02:04:02.020Z,11.50
2022-08-26T02:06:29.498Z,11.50
2022-08-26T02:08:58.647Z,12.02
2022-08-26T02:11:26.213Z,12.02
2022-08-26T02:13:56.295Z,12.43
2022-08-26T02:16:25.446Z,11.30
2022-08-26T02:18:53.482Z,12.40
2022-08-26T02:21:20.931Z,12.18
2022-08-26T02:23:48.268Z,12.48
2022-08-26T02:26:20.402Z,13.15
2022-08-26T02:28:51.939Z,12.52
2022-08-26T02:33:47.291Z,12.93
2022-08-26T02:36:19.705Z,12.95
2022-08-26T02:38:46.993Z,13.93
2022-08-26T02:41:15.220Z,15.27
2022-08-26T02:43:45.496Z,15.07
2022-08-26T02:46:12.977Z,15.68
2022-08-26T02:48:48.847Z,14.65
2022-08-26T02:51:16.135Z,14.55
2022-08-26T02:53:43.499Z,16.45
2022-08-26T02:56:11.486Z,15.68
2022-08-26T02:58:38.779Z,14.75
2022-08-26T03:01:06.283Z,14.77
2022-08-26T03:03:34.183Z,15.40
2022-08-26T03:06:01.469Z,15.98
2022-08-26T03:08:28.785Z,15.70
2022-08-26T03:10:56.074Z,15.90
2022-08-26T03:13:23.387Z,15.55
2022-08-26T03:15:50.688Z,16.33
2022-08-26T03:18:18.121Z,16.50
2022-08-26T03:20:47.836Z,15.23
2022-08-26T03:23:16.081Z,17.65
2022-08-26T03:25:43.372Z,17.42
2022-08-26T03:28:10.674Z,17.17
2022-08-26T03:30:44.897Z,17.20
2022-08-26T03:33:14.002Z,18.10
2022-08-26T03:35:42.844Z,18.17
2022-08-26T03:38:10.869Z,19.58
2022-08-26T03:40:39.076Z,20.83
2022-08-26T03:43:09.804Z,22.40
2022-08-26T03:45:37.778Z,23.50
2022-08-26T03:48:05.808Z,23.40
2022-08-26T03:50:34.378Z,24.25
2022-08-26T03:53:03.541Z,24.17
2022-08-26T03:55:32.125Z,23.17
2022-08-26T03:57:59.815Z,24.55
2022-08-26T04:00:27.267Z,24.30
2022-08-26T04:02:54.704Z,24.08
2022-08-26T04:05:23.315Z,23.50
2022-08-26T04:07:50.960Z,22.33
2022-08-26T04:10:20.043Z,24.83
2022-08-26T04:12:48.332Z,23.90
2022-08-26T04:15:16.308Z,27.10
2022-08-26T04:17:45.272Z,27.00
2022-08-26T04:20:14.036Z,28.73
2022-08-26T04:22:43.569Z,27.92
2022-08-26T04:25:11.337Z,29.65
2022-08-26T04:27:38.859Z,30.13
2022-08-26T04:30:08.962Z,30.75
2022-08-26T04:32:37.348Z,29.42
2022-08-26T04:35:05.452Z,29.98
2022-08-26T04:37:33.595Z,31.55
2022-08-26T04:40:00.943Z,29.10
2022-08-26T04:42:29.932Z,29.75
2022-08-26T04:44:57.217Z,30.40
2022-08-26T04:47:27.157Z,30.15
2022-08-26T04:49:57.799Z,32.60
2022-08-26T04:52:25.269Z,31.15
2022-08-26T04:54:52.796Z,30.17
2022-08-26T04:57:20.102Z,33.15
2022-08-26T04:59:47.963Z,33.67
2022-08-26T05:02:16.857Z,34.03
2022-08-26T05:04:44.248Z,36.67
2022-08-26T05:07:12.049Z,41.30
2022-08-26T05:09:42.192Z,40.47
2022-08-26T05:12:09.807Z,41.33
2022-08-26T05:14:37.258Z,41.85
2022-08-26T05:17:04.748Z,42.03
2022-08-26T05:19:32.819Z,42.13
2022-08-26T05:22:00.128Z,43.13
2022-08-26T05:24:27.594Z,40.63
2022-08-26T05:26:54.902Z,38.67
2022-08-26T05:29:24.112Z,36.40
2022-08-26T05:31:52.277Z,35.65
2022-08-26T05:34:20.790Z,34.80
2022-08-26T05:36:48.562Z,36.65
2022-08-26T05:39:15.895Z,39.10
2022-08-26T05:41:44.724Z,39.10
2022-08-26T05:44:15.169Z,38.42
2022-08-26T05:49:14.007Z,35.70
2022-08-26T05:51:45.274Z,35.42
2022-08-26T05:54:12.974Z,34.05
2022-08-26T05:56:40.477Z,34.78
2022-08-26T05:59:14.386Z,36.47
2022-08-26T06:04:09.200Z,37.03
2022-08-26T06:06:37.248Z,37.83
2022-08-26T06:09:06.406Z,35.65
2022-08-26T06:11:36.963Z,38.70
2022-08-26T06:14:06.018Z,38.10
2022-08-26T06:16:34.936Z,37.40
2022-08-26T06:19:03.396Z,36.47
2022-08-26T06:21:39.369Z,36.15
2022-08-26T06:24:27.365Z,36.88
2022-08-26T06:27:01.590Z,38.58
2022-08-26T06:29:29.854Z,36.75
2022-08-26T06:31:58.032Z,38.25
2022-08-26T06:34:29.615Z,37.10
2022-08-26T06:36:58.668Z,37.03
2022-08-26T06:39:26.176Z,35.92
2022-08-26T06:41:53.518Z,35.10
2022-08-26T06:44:22.448Z,36.95
2022-08-26T06:46:50.527Z,37.38
2022-08-26T06:49:27.546Z,36.78
2022-08-26T06:51:58.575Z,35.22
2022-08-26T06:54:26.493Z,33.85
2022-08-26T06:56:53.903Z,35.10
2022-08-26T06:59:22.393Z,35.08
2022-08-26T07:01:50.021Z,33.42
2022-08-26T07:04:22.092Z,33.97
2022-08-26T07:06:52.640Z,31.85
2022-08-26T07:09:21.190Z,31.35
2022-08-26T07:11:48.633Z,30.55
2022-08-26T07:14:21.071Z,32.80
2022-08-26T07:16:49.504Z,31.35
2022-08-26T07:19:17.534Z,31.38
2022-08-26T07:21:56.337Z,33.25
2022-08-26T07:24:23.617Z,30.30
2022-08-26T07:26:58.871Z,29.77
2022-08-26T07:29:26.225Z,28.15
2022-08-26T07:31:54.407Z,26.88
2022-08-26T07:34:24.156Z,27.95
2022-08-26T07:36:51.711Z,29.38
2022-08-26T07:39:19.559Z,28.85
2022-08-26T07:41:47.873Z,27.08
2022-08-26T07:44:16.744Z,27.33
2022-08-26T07:46:44.530Z,27.45
2022-08-26T07:49:20.105Z,25.90
2022-08-26T07:51:47.463Z,43.65
2022-08-26T07:54:14.921Z,27.80
2022-08-26T07:56:44.280Z,28.27
2022-08-26T07:59:13.610Z,26.23
2022-08-26T08:01:41.565Z,24.42
2022-08-26T08:04:13.832Z,23.55
2022-08-26T08:06:41.621Z,23.10
2022-08-26T08:09:11.565Z,22.48
2022-08-26T08:11:38.856Z,23.60
2022-08-26T08:14:08.565Z,24.63
2022-08-26T08:16:41.553Z,22.90
2022-08-26T08:19:13.474Z,23.15
2022-08-26T08:21:41.802Z,23.00
2022-08-26T08:24:09.635Z,25.75
2022-08-26T08:26:37.207Z,23.13
2022-08-26T08:29:05.070Z,22.95
2022-08-26T08:31:54.372Z,24.55
2022-08-26T08:34:21.607Z,24.30
2022-08-26T08:36:49.606Z,25.77
2022-08-26T08:39:17.620Z,26.55
2022-08-26T08:41:54.151Z,43.58
2022-08-26T08:44:30.850Z,24.50
2022-08-26T08:47:04.653Z,22.90
2022-08-26T08:49:33.311Z,21.83
2022-08-26T08:52:00.566Z,20.10
2022-08-26T08:54:29.197Z,21.02
2022-08-26T08:57:05.497Z,20.92
2022-08-26T08:59:34.437Z,19.10
2022-08-26T09:02:05.607Z,20.08
2022-08-26T09:04:52.498Z,20.38
2022-08-26T09:07:23.079Z,19.27
2022-08-26T09:10:06.952Z,20.05
2022-08-26T09:12:35.026Z,20.30
2022-08-26T09:15:07.505Z,22.27
2022-08-26T09:17:37.698Z,20.80
2022-08-26T09:20:14.950Z,19.55
2022-08-26T09:22:44.340Z,17.50
2022-08-26T09:25:13.260Z,17.55
2022-08-26T09:27:51.168Z,16.45
2022-08-26T09:30:27.161Z,15.18
2022-08-26T09:32:59.227Z,14.40
2022-08-26T09:35:30.183Z,13.55
2022-08-26T09:37:58.093Z,18.13
2022-08-26T09:40:34.693Z,14.93
2022-08-26T09:43:16.016Z,15.93
2022-08-26T09:45:58.391Z,14.13
2022-08-26T09:48:26.639Z,13.88
2022-08-26T09:50:55.799Z,10.73
2022-08-26T09:53:28.662Z,10.85
2022-08-26T09:56:15.945Z,9.75
2022-08-26T09:58:44.898Z,9.43
2022-08-26T10:01:18.167Z,9.35
2022-08-26T10:03:47.124Z,9.32
2022-08-26T10:06:21.014Z,9.70
2022-08-26T10:09:03.588Z,9.27
2022-08-26T10:11:38.401Z,8.88
2022-08-26T10:14:25.252Z,11.73
2022-08-26T10:17:02.880Z,8.77
2022-08-26T10:19:57.206Z,8.23
2022-08-26T10:22:36.087Z,7.88
2022-08-26T10:25:06.383Z,8.85
2022-08-26T10:27:53.777Z,7.43
2022-08-26T10:30:25.829Z,6.60
2022-08-26T10:32:56.431Z,6.55
2022-08-26T10:35:23.786Z,6.03
2022-08-26T10:38:01.454Z,7.03
2022-08-26T10:40:31.487Z,5.53
2022-08-26T10:43:18.066Z,6.18
2022-08-26T10:45:55.712Z,5.93
2022-08-26T10:48:35.344Z,5.75
2022-08-26T10:51:04.254Z,6.15
2022-08-26T10:53:39.179Z,5.70
2022-08-26T10:56:30.471Z,5.13
2022-08-26T10:59:00.756Z,16.83
2022-08-26T11:01:43.442Z,5.15
2022-08-26T11:04:13.570Z,4.63
2022-08-26T11:06:41.870Z,4.45
2022-08-26T11:09:10.140Z,4.20
2022-08-26T11:11:37.359Z,4.47
2022-08-26T11:14:06.048Z,4.18
2022-08-26T11:16:44.530Z,4.40
2022-08-26T11:19:56.814Z,4.95
2022-08-26T11:22:26.844Z,4.47
2022-08-26T11:24:54.104Z,4.90
2022-08-26T11:27:24.915Z,4.45
2022-08-26T11:30:00.057Z,5.10
2022-08-26T11:32:46.143Z,4.22
2022-08-26T11:35:21.869Z,4.50
2022-08-26T11:37:51.791Z,4.18
2022-08-26T11:40:25.373Z,4.95
2022-08-26T11:42:54.349Z,4.45
2022-08-26T11:45:30.683Z,4.85
2022-08-26T11:47:58.949Z,4.22
2022-08-26T11:50:27.287Z,4.68
2022-08-26T11:52:56.755Z,4.30
2022-08-26T11:55:24.589Z,4.85
2022-08-26T11:57:54.025Z,4.60
2022-08-26T12:00:31.393Z,3.35
2022-08-26T12:03:02.708Z,3.95
2022-08-26T12:05:31.504Z,4.60
2022-08-26T12:08:02.378Z,3.72
2022-08-26T12:10:34.447Z,3.88
2022-08-26T12:13:02.743Z,4.10
2022-08-26T12:15:32.001Z,3.85
2022-08-26T12:18:16.631Z,4.00
2022-08-26T12:20:48.074Z,3.72
2022-08-26T12:23:27.367Z,3.97
2022-08-26T12:26:03.277Z,3.65
2022-08-26T12:28:31.727Z,3.80
2022-08-26T12:31:00.076Z,3.70
2022-08-26T12:33:28.630Z,3.60
2022-08-26T12:35:57.022Z,3.60
2022-08-26T12:38:25.736Z,3.22
2022-08-26T12:40:53.358Z,4.05
2022-08-26T12:43:39.736Z,4.00
2022-08-26T12:46:08.905Z,3.50
2022-08-26T12:48:38.548Z,4.07
2022-08-26T12:51:16.731Z,3.80
2022-08-26T12:53:44.428Z,3.28
2022-08-26T12:56:30.296Z,3.38
2022-08-26T12:59:12.199Z,3.70
2022-08-26T13:01:45.208Z,4.05
2022-08-26T13:04:46.233Z,3.83
2022-08-26T13:07:31.608Z,4.17
2022-08-26T13:10:00.917Z,3.55
2022-08-26T13:12:29.901Z,4.00
2022-08-26T13:14:58.826Z,3.58
2022-08-26T13:17:26.822Z,3.05
2022-08-26T13:19:54.437Z,3.50
2022-08-26T13:22:24.313Z,3.58
2022-08-26T13:24:56.404Z,3.17
2022-08-26T13:27:26.154Z,3.58
2022-08-26T13:29:53.926Z,3.63
2022-08-26T13:32:27.163Z,3.40
2022-08-26T13:34:55.396Z,3.30
2022-08-26T13:37:29.330Z,3.13
2022-08-26T13:40:05.694Z,2.88
2022-08-26T13:42:33.088Z,2.67
2022-08-26T13:45:01.899Z,3.20
2022-08-26T13:47:29.310Z,3.50
2022-08-26T13:49:56.686Z,3.72
2022-08-26T13:52:30.134Z,2.95
2022-08-26T13:54:59.184Z,2.60
2022-08-26T13:57:28.057Z,2.45
2022-08-26T13:59:57.159Z,2.50
2022-08-26T14:02:24.532Z,2.45
2022-08-26T14:04:53.758Z,2.75
2022-08-26T14:07:21.162Z,1.83
2022-08-26T14:09:48.540Z,1.73
2022-08-26T14:12:16.603Z,2.20
2022-08-26T14:14:43.926Z,1.67
2022-08-26T14:17:11.707Z,2.15
2022-08-26T14:19:39.696Z,2.30
2022-08-26T14:22:06.999Z,1.77
2022-08-26T14:24:34.280Z,1.85
2022-08-26T14:27:01.658Z,2.47
2022-08-26T14:29:29.078Z,2.13
2022-08-26T14:31:58.748Z,1.90
2022-08-26T14:34:26.291Z,4.75
2022-08-26T14:36:53.632Z,2.15
2022-08-26T14:39:21.501Z,2.17
2022-08-26T14:41:54.180Z,2.38
2022-08-26T14:44:22.830Z,1.90
2022-08-26T14:46:52.804Z,2.28
2022-08-26T14:49:21.457Z,2.20
2022-08-26T14:51:48.886Z,3.03
2022-08-26T14:54:17.877Z,3.17
2022-08-26T14:56:50.193Z,2.50
2022-08-26T14:59:27.594Z,2.92
2022-08-26T15:01:55.565Z,3.05
2022-08-26T15:04:23.367Z,3.28
2022-08-26T15:06:51.176Z,3.45
2022-08-26T15:09:18.478Z,3.05
2022-08-26T15:11:47.572Z,3.30
2022-08-26T15:14:19.338Z,3.22
2022-08-26T15:16:48.322Z,3.95
2022-08-26T15:19:16.031Z,3.13
2022-08-26T15:21:45.409Z,3.85
2022-08-26T15:24:12.833Z,3.65
2022-08-26T15:26:40.600Z,3.97
2022-08-26T15:29:07.929Z,3.22
2022-08-26T15:31:35.622Z,3.25
2022-08-26T15:34:08.558Z,3.60
2022-08-26T15:36:38.131Z,3.55
2022-08-26T15:39:07.476Z,3.35
2022-08-26T15:41:35.078Z,3.63
2022-08-26T15:44:03.526Z,3.42
2022-08-26T15:46:32.143Z,3.60
2022-08-26T15:48:59.471Z,2.80
2022-08-26T15:51:28.378Z,3.55
2022-08-26T15:53:56.486Z,2.75
2022-08-26T15:56:27.781Z,3.13
2022-08-26T15:58:56.150Z,3.20
2022-08-26T16:01:27.143Z,3.50
2022-08-26T16:06:24.052Z,4.00
2022-08-26T16:08:51.846Z,3.42
2022-08-26T16:11:19.920Z,3.50
2022-08-26T16:13:47.951Z,3.33
2022-08-26T16:16:15.726Z,3.15
2022-08-26T16:18:43.556Z,2.40
2022-08-26T16:21:16.074Z,2.70
2022-08-26T16:23:45.301Z,12.75
2022-08-26T16:26:15.131Z,3.42
2022-08-26T16:28:43.612Z,2.55
2022-08-26T16:31:11.330Z,2.80
2022-08-26T16:33:38.926Z,2.72
2022-08-26T16:36:06.887Z,2.42
2022-08-26T16:38:34.659Z,2.92
2022-08-26T16:41:02.043Z,2.95
2022-08-26T16:43:29.387Z,2.95
2022-08-26T16:45:56.869Z,2.97
2022-08-26T16:48:24.569Z,2.80
2022-08-26T16:50:54.445Z,3.13
2022-08-26T16:53:22.203Z,2.90
2022-08-26T16:55:50.265Z,2.50
2022-08-26T16:58:17.948Z,2.72
2022-08-26T17:00:45.427Z,2.83
2022-08-26T17:03:13.182Z,2.63
2022-08-26T17:05:40.700Z,2.83
2022-08-26T17:08:08.208Z,2.20
2022-08-26T17:10:36.251Z,2.63
2022-08-26T17:13:03.601Z,2.38
2022-08-26T17:15:30.950Z,2.65
2022-08-26T17:17:58.303Z,2.78
2022-08-26T17:20:25.777Z,3.28
2022-08-26T17:22:54.014Z,2.55
2022-08-26T17:25:24.036Z,2.78
2022-08-26T17:27:51.422Z,3.15
2022-08-26T17:30:19.052Z,2.75
2022-08-26T17:32:46.409Z,2.80
2022-08-26T17:35:14.252Z,2.92
2022-08-26T17:37:41.795Z,3.08
2022-08-26T17:40:10.482Z,2.40
2022-08-26T17:42:38.624Z,2.70
2022-08-26T17:45:06.206Z,3.03
2022-08-26T17:47:34.018Z,3.47
2022-08-26T17:50:04.139Z,2.47
2022-08-26T17:52:31.699Z,2.55
2022-08-26T17:54:59.457Z,2.58
2022-08-26T17:57:27.159Z,1.80
2022-08-26T17:59:54.923Z,1.75
2022-08-26T18:02:23.347Z,1.50
2022-08-26T18:04:50.669Z,1.83
2022-08-26T18:07:18.294Z,1.75
2022-08-26T18:09:45.855Z,2.28
2022-08-26T18:12:13.271Z,1.50
2022-08-26T18:14:40.587Z,1.80
2022-08-26T18:17:07.884Z,1.75
2022-08-26T18:19:35.331Z,1.52
2022-08-26T18:22:02.651Z,1.40
2022-08-26T18:24:32.187Z,1.30
2022-08-26T18:26:59.542Z,4.28
2022-08-26T18:29:27.503Z,1.45
2022-08-26T18:31:54.780Z,2.28
2022-08-26T18:34:22.169Z,1.55
2022-08-26T18:36:52.371Z,1.38
2022-08-26T18:39:19.673Z,1.88
2022-08-26T18:41:55.232Z,1.75
2022-08-26T18:44:23.383Z,1.90
2022-08-26T18:46:51.213Z,1.85
2022-08-26T18:49:19.776Z,1.00
2022-08-26T18:51:47.818Z,1.23
2022-08-26T18:54:15.116Z,1.80
2022-08-26T18:56:43.759Z,1.10
2022-08-26T18:59:11.350Z,0.80
2022-08-26T19:01:40.575Z,1.40
2022-08-26T19:04:08.450Z,0.95
2022-08-26T19:06:42.016Z,1.00
2022-08-26T19:09:10.664Z,1.27
2022-08-26T19:11:42.762Z,1.52
2022-08-26T19:14:13.105Z,1.73
2022-08-26T19:16:41.147Z,0.88
2022-08-26T19:19:08.464Z,0.82
2022-08-26T19:21:36.692Z,1.10
2022-08-26T19:24:06.035Z,0.77
2022-08-26T19:26:33.596Z,0.75
2022-08-26T19:29:01.112Z,1.13
2022-08-26T19:31:28.778Z,1.13
2022-08-26T19:33:58.106Z,0.93
2022-08-26T19:36:26.046Z,1.08
2022-08-26T19:38:53.972Z,0.90
2022-08-26T19:41:26.536Z,1.00
2022-08-26T19:43:58.725Z,1.33
2022-08-26T19:46:26.749Z,13.73
2022-08-26T19:48:55.819Z,38.10
2022-08-26T19:51:24.454Z,1.73
2022-08-26T19:53:52.597Z,1.40
2022-08-26T19:56:19.964Z,1.42
2022-08-26T19:58:47.699Z,1.00
2022-08-26T20:01:15.879Z,0.60
2022-08-26T20:03:43.938Z,1.40
2022-08-26T20:06:12.322Z,0.82
2022-08-26T20:08:41.017Z,0.85
2022-08-26T20:11:10.155Z,0.77
2022-08-26T20:13:37.476Z,1.10
2022-08-26T20:16:05.042Z,0.90
2022-08-26T20:18:50.893Z,0.95
2022-08-26T20:21:27.687Z,0.90
2022-08-26T20:24:00.612Z,0.95
2022-08-26T20:26:29.059Z,0.90
2022-08-26T20:28:56.863Z,1.00
2022-08-26T20:31:24.576Z,1.00
2022-08-26T20:33:52.341Z,0.80
2022-08-26T20:36:20.546Z,0.95
2022-08-26T20:38:48.495Z,0.73
2022-08-26T20:41:15.847Z,0.95
2022-08-26T20:43:43.705Z,1.20
2022-08-26T20:46:17.809Z,1.00
2022-08-26T20:48:46.381Z,0.98
2022-08-26T20:51:13.796Z,0.93
2022-08-26T20:53:41.423Z,0.68
2022-08-26T20:56:09.524Z,1.00
2022-08-26T20:58:37.370Z,0.88
2022-08-26T21:01:07.950Z,1.58
2022-08-26T21:03:36.092Z,1.20
2022-08-26T21:06:03.880Z,0.63
2022-08-26T21:08:33.169Z,1.27
2022-08-26T21:11:00.926Z,0.90
2022-08-26T21:13:39.185Z,1.25
2022-08-26T21:16:15.993Z,1.20
2022-08-26T21:18:43.417Z,0.88
2022-08-26T21:21:10.771Z,1.25
2022-08-26T21:23:38.495Z,1.02
2022-08-26T21:26:13.347Z,4.00
2022-08-26T21:28:41.969Z,13.15
2022-08-26T21:31:10.784Z,1.70
2022-08-26T21:33:38.371Z,1.33
2022-08-26T21:36:06.796Z,1.00
2022-08-26T21:38:36.295Z,1.00
2022-08-26T21:41:32.708Z,1.20
2022-08-26T21:44:00.342Z,0.77
2022-08-26T21:46:29.493Z,1.20
2022-08-26T21:48:58.967Z,0.93
2022-08-26T21:51:27.434Z,0.93
2022-08-26T21:53:55.466Z,1.13
2022-08-26T21:56:23.987Z,1.25
2022-08-26T21:58:52.402Z,1.48
2022-08-26T22:01:21.686Z,0.90
2022-08-26T22:03:49.790Z,1.00
2022-08-26T22:06:17.932Z,1.13
2022-08-26T22:08:45.278Z,0.95
2022-08-26T22:11:13.302Z,8.70
2022-08-26T22:13:41.697Z,1.75
2022-08-26T22:16:09.628Z,0.98
2022-08-26T22:18:37.211Z,1.00
2022-08-26T22:21:06.482Z,1.02
2022-08-26T22:23:33.990Z,1.00
2022-08-26T22:26:01.326Z,1.25
2022-08-26T22:28:28.667Z,0.65
2022-08-26T22:30:56.224Z,0.90
2022-08-26T22:33:23.632Z,1.02
2022-08-26T22:35:51.888Z,0.73
2022-08-26T22:38:19.960Z,0.95
2022-08-26T22:40:49.586Z,0.80
2022-08-26T22:43:18.027Z,0.80
2022-08-26T22:45:47.939Z,0.88
2022-08-26T22:48:17.379Z,1.10
2022-08-26T22:50:45.890Z,0.70
2022-08-26T22:53:13.425Z,0.93
2022-08-26T22:55:40.906Z,0.85
2022-08-26T22:58:08.464Z,0.80
2022-08-26T23:00:36.528Z,1.08
2022-08-26T23:03:04.965Z,0.70
2022-08-26T23:05:32.538Z,0.60
2022-08-26T23:07:59.929Z,0.70
2022-08-26T23:10:27.288Z,33.72
2022-08-26T23:12:54.763Z,2.67
2022-08-26T23:15:22.454Z,0.93
2022-08-26T23:17:53.595Z,0.68
2022-08-26T23:20:26.802Z,0.85
2022-08-26T23:22:54.300Z,1.00
2022-08-26T23:25:21.750Z,1.10
2022-08-26T23:27:49.166Z,0.88
2022-08-26T23:30:19.009Z,0.98
2022-08-26T23:32:46.399Z,22.88
2022-08-26T23:35:14.519Z,3.17
2022-08-26T23:37:44.152Z,1.33
2022-08-26T23:42:40.774Z,0.88
2022-08-26T23:45:09.040Z,0.88
2022-08-26T23:47:36.867Z,1.10
2022-08-26T23:50:04.686Z,1.10
2022-08-26T23:52:50.563Z,0.90
2022-08-26T23:55:18.009Z,1.40
2022-08-26T23:57:45.390Z,0.95
